createdAt,value
2018-05-25T00:00:59.232Z,3.77
2018-05-25T00:03:27.587Z,4.33
2018-05-25T00:05:56.818Z,3.73
2018-05-25T00:08:25.209Z,4.13
2018-05-25T00:10:54.037Z,3.70
2018-05-25T00:13:24.111Z,3.17
2018-05-25T00:15:52.426Z,4.27
2018-05-25T00:18:20.804Z,4.00
2018-05-25T00:20:49.151Z,5.10
2018-05-25T00:23:17.506Z,4.47
2018-05-25T00:25:46.785Z,4.33
2018-05-25T00:28:15.103Z,4.30
2018-05-25T00:30:43.436Z,3.80
2018-05-25T00:33:11.764Z,4.20
2018-05-25T00:35:40.204Z,4.00
2018-05-25T00:38:08.554Z,4.17
2018-05-25T00:40:36.877Z,4.20
2018-05-25T00:43:05.272Z,3.90
2018-05-25T00:45:33.600Z,4.53
2018-05-25T00:48:02.048Z,4.63
2018-05-25T00:50:30.445Z,4.37
2018-05-25T00:52:58.814Z,4.40
2018-05-25T00:55:41.541Z,3.90
2018-05-25T00:58:09.977Z,4.27
2018-05-25T01:00:38.436Z,6.30
2018-05-25T01:03:06.838Z,4.07
2018-05-25T01:05:35.183Z,4.23
2018-05-25T01:08:03.611Z,5.30
2018-05-25T01:10:33.309Z,3.93
2018-05-25T01:13:01.622Z,3.93
2018-05-25T01:15:30.017Z,4.70
2018-05-25T01:17:58.377Z,3.83
2018-05-25T01:20:26.697Z,4.23
2018-05-25T01:22:55.996Z,4.50
2018-05-25T01:25:24.315Z,3.90
2018-05-25T01:27:52.648Z,4.67
2018-05-25T01:30:20.983Z,4.33
2018-05-25T01:32:49.316Z,4.87
2018-05-25T01:35:17.668Z,4.13
2018-05-25T01:37:46.013Z,4.50
2018-05-25T01:40:14.347Z,4.83
2018-05-25T01:42:42.708Z,4.43
2018-05-25T01:45:11.014Z,4.33
2018-05-25T01:47:39.423Z,4.50
2018-05-25T01:50:08.966Z,4.37
2018-05-25T01:52:38.190Z,4.83
2018-05-25T01:55:06.547Z,4.30
2018-05-25T01:57:34.863Z,4.60
2018-05-25T02:00:03.216Z,5.67
2018-05-25T02:02:32.476Z,4.50
2018-05-25T02:05:01.037Z,4.37
2018-05-25T02:07:29.381Z,4.33
2018-05-25T02:09:57.715Z,4.33
2018-05-25T02:12:26.118Z,4.23
2018-05-25T02:14:54.996Z,4.13
2018-05-25T02:17:23.632Z,5.07
2018-05-25T02:19:51.981Z,4.37
2018-05-25T02:22:20.447Z,4.83
2018-05-25T02:24:48.896Z,5.03
2018-05-25T02:27:17.214Z,4.77
2018-05-25T02:29:45.628Z,5.13
2018-05-25T02:32:13.941Z,4.20
2018-05-25T02:34:42.312Z,4.43
2018-05-25T02:37:10.633Z,4.13
2018-05-25T02:39:39.044Z,4.53
2018-05-25T02:42:07.314Z,4.33
2018-05-25T02:44:35.635Z,4.00
2018-05-25T02:47:03.989Z,3.93
2018-05-25T02:49:32.328Z,4.60
2018-05-25T02:52:00.660Z,4.70
2018-05-25T02:54:28.983Z,4.77
2018-05-25T02:56:57.388Z,4.93
2018-05-25T02:59:25.721Z,4.53
2018-05-25T03:01:54.060Z,5.00
2018-05-25T03:04:22.397Z,4.50
2018-05-25T03:06:50.711Z,5.07
2018-05-25T03:09:19.030Z,4.93
2018-05-25T03:11:47.369Z,4.90
2018-05-25T03:14:16.479Z,5.17
2018-05-25T03:16:44.866Z,4.90
2018-05-25T03:19:13.235Z,4.83
2018-05-25T03:21:41.625Z,4.40
2018-05-25T03:24:10.012Z,4.30
2018-05-25T03:26:38.406Z,5.37
2018-05-25T03:29:06.800Z,4.70
2018-05-25T03:31:35.157Z,4.70
2018-05-25T03:34:03.500Z,4.37
2018-05-25T03:36:31.819Z,4.60
2018-05-25T03:39:03.342Z,5.10
2018-05-25T03:41:31.687Z,4.70
2018-05-25T03:44:00.036Z,4.73
2018-05-25T03:46:28.345Z,5.13
2018-05-25T03:48:56.771Z,5.13
2018-05-25T03:51:25.136Z,5.50
2018-05-25T03:53:53.660Z,5.10
2018-05-25T03:56:21.963Z,5.07
2018-05-25T03:59:03.011Z,5.03
2018-05-25T04:01:43.941Z,4.97
2018-05-25T04:04:12.267Z,4.00
2018-05-25T04:06:40.648Z,5.33
2018-05-25T04:09:09.779Z,4.77
2018-05-25T04:11:38.178Z,4.70
2018-05-25T04:14:06.537Z,4.70
2018-05-25T04:16:34.889Z,4.33
2018-05-25T04:19:04.309Z,5.10
2018-05-25T04:21:32.642Z,4.80
2018-05-25T04:24:00.963Z,5.50
2018-05-25T04:26:29.278Z,5.23
2018-05-25T04:28:57.707Z,5.23
2018-05-25T04:31:26.035Z,5.80
2018-05-25T04:33:54.434Z,5.23
2018-05-25T04:36:22.748Z,5.23
2018-05-25T04:38:51.078Z,5.60
2018-05-25T04:41:19.415Z,5.53
2018-05-25T04:43:47.752Z,5.93
2018-05-25T04:46:16.150Z,4.83
2018-05-25T04:48:44.483Z,6.13
2018-05-25T04:51:12.808Z,5.63
2018-05-25T04:53:41.163Z,5.87
2018-05-25T04:56:09.500Z,6.23
2018-05-25T04:58:37.914Z,6.30
2018-05-25T05:01:06.281Z,6.93
2018-05-25T05:03:34.587Z,5.40
2018-05-25T05:06:02.938Z,5.97
2018-05-25T05:08:31.268Z,6.50
2018-05-25T05:10:59.669Z,6.23
2018-05-25T05:13:28.011Z,5.27
2018-05-25T05:15:56.363Z,5.67
2018-05-25T05:18:24.745Z,5.63
2018-05-25T05:20:53.090Z,6.37
2018-05-25T05:23:21.523Z,6.13
2018-05-25T05:25:49.850Z,5.97
2018-05-25T05:28:18.182Z,5.97
2018-05-25T05:30:46.591Z,6.13
2018-05-25T05:33:14.920Z,6.07
2018-05-25T05:35:43.279Z,5.17
2018-05-25T05:38:11.622Z,5.27
2018-05-25T05:40:39.971Z,5.77
2018-05-25T05:43:08.711Z,5.67
2018-05-25T05:45:37.100Z,5.47
2018-05-25T05:48:05.467Z,6.37
2018-05-25T05:50:33.890Z,5.83
2018-05-25T05:53:02.254Z,6.30
2018-05-25T05:55:30.647Z,5.73
2018-05-25T05:57:59.021Z,5.70
2018-05-25T06:00:27.409Z,6.00
2018-05-25T06:02:58.567Z,6.47
2018-05-25T06:05:26.961Z,5.63
2018-05-25T06:07:55.364Z,6.07
2018-05-25T06:10:23.703Z,7.00
2018-05-25T06:12:52.148Z,6.90
2018-05-25T06:15:20.489Z,7.07
2018-05-25T06:17:48.833Z,6.40
2018-05-25T06:20:17.266Z,7.43
2018-05-25T06:22:45.568Z,5.97
2018-05-25T06:25:13.910Z,9.10
2018-05-25T06:27:42.256Z,6.70
2018-05-25T06:30:10.681Z,6.37
2018-05-25T06:32:39.021Z,7.37
2018-05-25T06:35:07.364Z,6.57
2018-05-25T06:37:35.708Z,8.35
2018-05-25T06:40:04.057Z,5.78
2018-05-25T06:42:32.414Z,6.87
2018-05-25T06:45:00.740Z,6.62
2018-05-25T06:47:29.132Z,6.07
2018-05-25T06:49:57.460Z,5.47
2018-05-25T06:52:26.410Z,5.35
2018-05-25T06:54:54.788Z,7.05
2018-05-25T06:57:23.200Z,5.50
2018-05-25T07:00:09.485Z,6.60
2018-05-25T07:05:29.305Z,5.68
2018-05-25T07:07:57.623Z,5.28
2018-05-25T07:10:26.027Z,5.35
2018-05-25T07:12:54.369Z,5.72
2018-05-25T07:15:22.811Z,5.72
2018-05-25T07:17:51.201Z,5.07
2018-05-25T07:20:19.524Z,4.35
2018-05-25T07:22:47.849Z,4.50
2018-05-25T07:25:16.163Z,4.47
2018-05-25T07:27:44.577Z,5.22
2018-05-25T07:30:12.976Z,4.45
2018-05-25T07:32:41.301Z,3.77
2018-05-25T07:35:09.643Z,4.07
2018-05-25T07:37:37.969Z,3.53
2018-05-25T07:40:06.610Z,3.67
2018-05-25T07:42:34.936Z,3.70
2018-05-25T07:45:03.364Z,4.70
2018-05-25T07:47:31.692Z,3.20
2018-05-25T07:50:00.144Z,3.53
2018-05-25T07:52:28.475Z,3.00
2018-05-25T07:54:56.793Z,3.63
2018-05-25T07:57:25.135Z,4.20
2018-05-25T07:59:53.452Z,3.83
2018-05-25T08:02:21.804Z,4.30
2018-05-25T08:04:50.121Z,3.90
2018-05-25T08:07:18.464Z,3.93
2018-05-25T08:09:46.790Z,4.03
2018-05-25T08:12:15.107Z,3.87
2018-05-25T08:14:44.297Z,4.03
2018-05-25T08:17:12.635Z,4.73
2018-05-25T08:19:41.040Z,4.33
2018-05-25T08:22:09.448Z,4.63
2018-05-25T08:24:37.786Z,4.83
2018-05-25T08:27:06.099Z,4.47
2018-05-25T08:29:34.419Z,4.37
2018-05-25T08:32:02.781Z,4.90
2018-05-25T08:34:46.756Z,4.20
2018-05-25T08:37:15.133Z,4.23
2018-05-25T08:39:43.535Z,4.33
2018-05-25T08:42:11.924Z,4.27
2018-05-25T08:44:40.288Z,3.83
2018-05-25T08:47:08.706Z,4.97
2018-05-25T08:49:37.052Z,4.07
2018-05-25T08:52:05.394Z,3.90
2018-05-25T08:54:33.740Z,4.07
2018-05-25T08:57:02.067Z,4.47
2018-05-25T08:59:30.420Z,3.62
2018-05-25T09:01:58.858Z,3.85
2018-05-25T09:04:27.188Z,3.58
2018-05-25T09:06:55.511Z,4.03
2018-05-25T09:09:23.846Z,4.10
2018-05-25T09:11:52.175Z,4.35
2018-05-25T09:14:20.491Z,4.57
2018-05-25T09:16:49.162Z,3.85
2018-05-25T09:19:17.507Z,4.10
2018-05-25T09:21:45.862Z,3.70
2018-05-25T09:24:14.174Z,4.68
2018-05-25T09:26:42.574Z,3.83
2018-05-25T09:29:10.901Z,3.95
2018-05-25T09:31:39.255Z,3.72
2018-05-25T09:34:07.568Z,3.72
2018-05-25T09:36:35.906Z,3.80
2018-05-25T09:39:04.220Z,5.32
2018-05-25T09:41:32.547Z,4.45
2018-05-25T09:44:00.958Z,4.25
2018-05-25T09:46:29.312Z,3.72
2018-05-25T09:48:57.703Z,3.60
2018-05-25T09:51:25.972Z,3.58
2018-05-25T09:53:54.322Z,3.10
2018-05-25T09:56:22.653Z,3.00
2018-05-25T09:58:51.021Z,3.07
2018-05-25T10:01:19.457Z,3.03
2018-05-25T10:03:47.849Z,3.08
2018-05-25T10:06:16.180Z,3.40
2018-05-25T10:08:44.504Z,2.83
2018-05-25T10:11:12.952Z,3.15
2018-05-25T10:13:41.319Z,3.85
2018-05-25T10:16:09.700Z,3.45
2018-05-25T10:18:38.043Z,3.12
2018-05-25T10:21:06.378Z,3.72
2018-05-25T10:23:34.710Z,3.25
2018-05-25T10:26:03.033Z,3.20
2018-05-25T10:28:31.373Z,4.03
2018-05-25T10:31:00.032Z,3.50
2018-05-25T10:33:28.376Z,3.80
2018-05-25T10:35:56.751Z,3.05
2018-05-25T10:38:25.100Z,3.58
2018-05-25T10:40:56.643Z,3.50
2018-05-25T10:43:24.972Z,3.47
2018-05-25T10:45:53.307Z,3.67
2018-05-25T10:48:21.635Z,3.75
2018-05-25T10:50:49.968Z,3.75
2018-05-25T10:53:18.357Z,3.30
2018-05-25T10:55:46.675Z,4.28
2018-05-25T10:58:15.022Z,3.95
2018-05-25T11:00:43.492Z,3.75
2018-05-25T11:03:12.830Z,3.70
2018-05-25T11:05:43.998Z,3.90
2018-05-25T11:08:12.312Z,4.70
2018-05-25T11:10:40.644Z,3.37
2018-05-25T11:13:08.959Z,3.67
2018-05-25T11:15:37.365Z,5.35
2018-05-25T11:18:05.727Z,4.00
2018-05-25T11:20:34.099Z,4.50
2018-05-25T11:23:02.405Z,3.87
2018-05-25T11:25:30.798Z,4.22
2018-05-25T11:27:59.113Z,4.28
2018-05-25T11:30:27.529Z,4.37
2018-05-25T11:32:55.942Z,4.30
2018-05-25T11:35:24.291Z,5.10
2018-05-25T11:37:52.688Z,4.37
2018-05-25T11:40:21.115Z,4.72
2018-05-25T11:42:49.435Z,4.40
2018-05-25T11:45:17.757Z,4.85
2018-05-25T11:47:46.082Z,5.03
2018-05-25T11:50:14.435Z,4.45
2018-05-25T11:52:42.855Z,4.82
2018-05-25T11:55:11.264Z,3.72
2018-05-25T11:57:39.596Z,4.70
2018-05-25T12:00:08.021Z,4.12
2018-05-25T12:02:36.367Z,4.55
2018-05-25T12:05:04.737Z,4.93
2018-05-25T12:07:33.108Z,5.12
2018-05-25T12:10:01.436Z,4.45
2018-05-25T12:12:29.787Z,4.97
2018-05-25T12:14:59.152Z,4.85
2018-05-25T12:17:27.593Z,5.05
2018-05-25T12:19:55.938Z,4.20
2018-05-25T12:22:24.323Z,4.37
2018-05-25T12:24:52.646Z,3.95
2018-05-25T12:27:21.296Z,4.22
2018-05-25T12:29:50.300Z,4.50
2018-05-25T12:32:18.645Z,4.57
2018-05-25T12:34:47.055Z,4.22
2018-05-25T12:37:15.372Z,4.65
2018-05-25T12:39:43.710Z,4.22
2018-05-25T12:42:12.038Z,4.05
2018-05-25T12:44:52.109Z,4.43
2018-05-25T12:47:20.442Z,3.92
2018-05-25T12:49:48.891Z,4.50
2018-05-25T12:52:17.202Z,4.80
2018-05-25T12:54:45.541Z,3.97
2018-05-25T12:57:13.941Z,3.87
2018-05-25T12:59:42.361Z,4.90
2018-05-25T13:02:10.682Z,6.95
2018-05-25T13:04:39.036Z,4.82
2018-05-25T13:07:07.380Z,4.15
2018-05-25T13:09:35.733Z,5.50
2018-05-25T13:12:04.077Z,3.75
2018-05-25T13:14:32.422Z,3.80
2018-05-25T13:17:00.745Z,4.32
2018-05-25T13:19:29.083Z,3.75
2018-05-25T13:21:57.408Z,3.75
2018-05-25T13:24:25.768Z,3.72
2018-05-25T13:26:54.104Z,4.62
2018-05-25T13:29:22.478Z,4.75
2018-05-25T13:31:50.846Z,4.03
2018-05-25T13:34:19.228Z,3.95
2018-05-25T13:36:47.555Z,4.00
2018-05-25T13:39:15.891Z,4.00
2018-05-25T13:41:44.304Z,4.78
2018-05-25T13:44:12.636Z,4.47
2018-05-25T13:46:40.988Z,4.65
2018-05-25T13:49:09.378Z,3.90
2018-05-25T13:51:37.740Z,4.03
2018-05-25T13:54:06.170Z,4.40
2018-05-25T13:56:34.502Z,3.87
2018-05-25T13:59:02.863Z,4.07
2018-05-25T14:01:31.204Z,3.40
2018-05-25T14:03:59.538Z,4.15
2018-05-25T14:06:27.876Z,4.15
2018-05-25T14:08:56.206Z,4.30
2018-05-25T14:11:24.603Z,4.00
2018-05-25T14:13:52.979Z,3.60
2018-05-25T14:16:21.803Z,4.68
2018-05-25T14:18:50.226Z,3.65
2018-05-25T14:21:18.637Z,4.07
2018-05-25T14:23:46.995Z,3.75
2018-05-25T14:26:15.364Z,3.47
2018-05-25T14:28:43.697Z,4.90
2018-05-25T14:31:12.025Z,4.15
2018-05-25T14:33:40.359Z,3.95
2018-05-25T14:36:08.838Z,4.05
2018-05-25T14:38:37.255Z,3.85
2018-05-25T14:41:05.585Z,3.75
2018-05-25T14:43:34.016Z,4.40
2018-05-25T14:46:02.396Z,4.05
2018-05-25T14:48:30.766Z,4.10
2018-05-25T14:50:59.129Z,4.57
2018-05-25T14:53:27.460Z,4.20
2018-05-25T14:55:55.776Z,4.05
2018-05-25T14:58:24.156Z,4.65
2018-05-25T15:00:52.520Z,3.78
2018-05-25T15:03:20.949Z,5.15
2018-05-25T15:05:49.342Z,4.43
2018-05-25T15:08:17.668Z,4.47
2018-05-25T15:10:46.024Z,4.07
2018-05-25T15:13:14.350Z,3.87
2018-05-25T15:15:42.710Z,4.32
2018-05-25T15:18:11.033Z,3.92
2018-05-25T15:20:39.385Z,5.32
2018-05-25T15:23:07.712Z,3.85
2018-05-25T15:25:36.081Z,3.95
2018-05-25T15:28:04.415Z,4.93
2018-05-25T15:30:32.741Z,4.28
2018-05-25T15:33:01.072Z,4.00
2018-05-25T15:35:29.455Z,3.90
2018-05-25T15:37:57.832Z,3.78
2018-05-25T15:40:26.172Z,3.75
2018-05-25T15:42:54.491Z,4.47
2018-05-25T15:45:22.823Z,4.47
2018-05-25T15:47:51.153Z,4.15
2018-05-25T15:50:19.484Z,4.12
2018-05-25T15:52:47.815Z,4.70
2018-05-25T15:55:17.771Z,9.25
2018-05-25T15:57:46.115Z,10.60
2018-05-25T16:00:14.463Z,3.78
2018-05-25T16:02:42.779Z,4.37
2018-05-25T16:05:11.163Z,3.97
2018-05-25T16:07:39.487Z,4.20
2018-05-25T16:10:07.857Z,4.00
2018-05-25T16:12:36.239Z,4.10
2018-05-25T16:15:04.676Z,3.65
2018-05-25T16:17:33.055Z,4.07
2018-05-25T16:20:01.412Z,3.80
2018-05-25T16:22:29.736Z,3.93
2018-05-25T16:24:58.061Z,4.10
2018-05-25T16:27:26.503Z,4.87
2018-05-25T16:29:54.819Z,4.17
2018-05-25T16:32:23.295Z,4.30
2018-05-25T16:34:51.621Z,4.43
2018-05-25T16:37:19.983Z,4.67
2018-05-25T16:39:48.339Z,4.20
2018-05-25T16:42:16.669Z,4.23
2018-05-25T16:44:44.985Z,4.80
2018-05-25T16:47:13.419Z,4.50
2018-05-25T16:49:41.769Z,4.53
2018-05-25T16:52:10.123Z,3.80
2018-05-25T16:54:38.449Z,5.90
2018-05-25T16:57:06.875Z,4.03
2018-05-25T16:59:35.307Z,4.27
2018-05-25T17:02:03.660Z,4.60
2018-05-25T17:04:31.980Z,6.50
2018-05-25T17:07:00.334Z,5.30
2018-05-25T17:09:28.757Z,14.37
2018-05-25T17:11:57.076Z,5.80
2018-05-25T17:14:25.448Z,11.53
2018-05-25T17:16:53.950Z,5.23
2018-05-25T17:19:22.285Z,6.13
2018-05-25T17:21:50.716Z,9.07
2018-05-25T17:24:19.148Z,8.00
2018-05-25T17:26:47.502Z,3.87
2018-05-25T17:29:15.887Z,4.53
2018-05-25T17:31:44.280Z,5.87
2018-05-25T17:34:12.687Z,4.37
2018-05-25T17:36:41.125Z,9.17
2018-05-25T17:39:09.464Z,4.77
2018-05-25T17:41:37.856Z,6.37
2018-05-25T17:44:06.248Z,14.83
2018-05-25T17:46:34.639Z,5.47
2018-05-25T17:49:03.028Z,8.07
2018-05-25T17:51:31.349Z,4.67
2018-05-25T17:53:59.707Z,4.50
2018-05-25T17:56:30.717Z,5.07
2018-05-25T17:58:59.808Z,4.63
2018-05-25T18:01:28.180Z,4.90
2018-05-25T18:03:56.555Z,5.37
2018-05-25T18:06:24.879Z,6.77
2018-05-25T18:08:53.251Z,5.63
2018-05-25T18:11:21.627Z,5.57
2018-05-25T18:13:49.986Z,5.80
2018-05-25T18:16:18.374Z,6.00
2018-05-25T18:18:46.715Z,18.57
2018-05-25T18:21:15.056Z,16.77
2018-05-25T18:23:43.400Z,10.03
2018-05-25T18:26:11.894Z,5.07
2018-05-25T18:28:40.218Z,5.20
2018-05-25T18:31:09.449Z,4.47
2018-05-25T18:33:41.653Z,5.37
2018-05-25T18:36:10.071Z,4.57
2018-05-25T18:38:38.472Z,4.50
2018-05-25T18:41:06.831Z,4.30
2018-05-25T18:43:35.177Z,5.30
2018-05-25T18:46:03.531Z,5.37
2018-05-25T18:48:31.849Z,5.07
2018-05-25T18:51:00.175Z,5.80
2018-05-25T18:53:28.499Z,5.57
2018-05-25T18:55:56.827Z,6.07
2018-05-25T18:58:25.150Z,5.17
2018-05-25T19:00:53.523Z,6.33
2018-05-25T19:03:21.847Z,5.87
2018-05-25T19:05:50.162Z,5.70
2018-05-25T19:08:18.491Z,5.63
2018-05-25T19:10:46.819Z,5.50
2018-05-25T19:13:15.150Z,5.17
2018-05-25T19:15:43.549Z,6.40
2018-05-25T19:18:11.919Z,6.10
2018-05-25T19:20:40.407Z,6.07
2018-05-25T19:23:09.060Z,7.10
2018-05-25T19:25:37.412Z,7.73
2018-05-25T19:28:05.797Z,37.03
2018-05-25T19:30:34.158Z,18.13
2018-05-25T19:33:02.495Z,8.17
2018-05-25T19:35:30.882Z,7.90
2018-05-25T19:37:59.235Z,10.80
2018-05-25T19:40:27.622Z,8.20
2018-05-25T19:42:56.304Z,8.30
2018-05-25T19:45:24.701Z,9.27
2018-05-25T19:47:53.015Z,6.70
2018-05-25T19:50:21.354Z,7.37
2018-05-25T19:52:49.715Z,15.07
2018-05-25T19:55:18.120Z,52.13
2018-05-25T19:57:46.457Z,69.70
2018-05-25T20:00:14.924Z,51.40
2018-05-25T20:02:43.287Z,72.63
2018-05-25T20:05:11.742Z,87.83
2018-05-25T20:07:40.091Z,94.80
2018-05-25T20:10:08.435Z,66.80
2018-05-25T20:12:36.778Z,40.90
2018-05-25T20:15:05.120Z,37.63
2018-05-25T20:17:34.089Z,27.87
2018-05-25T20:20:02.450Z,18.47
2018-05-25T20:22:30.962Z,26.37
2018-05-25T20:24:59.371Z,26.63
2018-05-25T20:27:28.504Z,17.27
2018-05-25T20:29:57.770Z,17.33
2018-05-25T20:32:27.143Z,11.23
2018-05-25T20:34:55.512Z,13.40
2018-05-25T20:37:23.968Z,11.77
2018-05-25T20:39:52.352Z,21.23
2018-05-25T20:42:20.703Z,19.23
2018-05-25T20:44:49.076Z,10.67
2018-05-25T20:47:17.442Z,8.57
2018-05-25T20:49:45.841Z,9.97
2018-05-25T20:52:14.211Z,7.10
2018-05-25T20:54:42.809Z,7.50
2018-05-25T20:57:11.222Z,10.03
2018-05-25T20:59:39.590Z,7.63
2018-05-25T21:02:07.935Z,9.57
2018-05-25T21:04:36.273Z,19.23
2018-05-25T21:07:04.910Z,13.47
2018-05-25T21:09:33.915Z,6.07
2018-05-25T21:12:02.348Z,6.17
2018-05-25T21:14:30.684Z,10.37
2018-05-25T21:16:59.048Z,7.23
2018-05-25T21:19:27.383Z,10.73
2018-05-25T21:21:56.115Z,11.07
2018-05-25T21:24:24.460Z,19.63
2018-05-25T21:26:52.831Z,14.27
2018-05-25T21:29:21.235Z,8.27
2018-05-25T21:31:49.640Z,6.60
2018-05-25T21:34:17.992Z,15.43
2018-05-25T21:36:46.482Z,18.20
2018-05-25T21:39:14.882Z,45.73
2018-05-25T21:41:43.220Z,24.60
2018-05-25T21:44:11.592Z,11.53
2018-05-25T21:46:39.975Z,7.03
2018-05-25T21:49:08.308Z,6.50
2018-05-25T21:51:36.688Z,6.47
2018-05-25T21:54:05.046Z,6.50
2018-05-25T21:56:33.842Z,6.40
2018-05-25T21:59:02.221Z,7.03
2018-05-25T22:01:31.404Z,7.90
2018-05-25T22:03:59.747Z,7.23
2018-05-25T22:06:28.165Z,6.77
2018-05-25T22:08:56.544Z,6.03
2018-05-25T22:11:24.913Z,5.97
2018-05-25T22:13:53.322Z,6.40
2018-05-25T22:16:21.677Z,6.67
2018-05-25T22:18:50.026Z,7.37
2018-05-25T22:21:18.404Z,6.87
2018-05-25T22:23:46.751Z,7.03
2018-05-25T22:26:15.091Z,6.43
2018-05-25T22:28:44.232Z,6.43
2018-05-25T22:31:12.573Z,7.50
2018-05-25T22:33:40.885Z,7.00
2018-05-25T22:36:09.231Z,6.50
2018-05-25T22:38:37.560Z,6.40
2018-05-25T22:41:05.939Z,6.30
2018-05-25T22:43:46.323Z,6.57
2018-05-25T22:46:26.697Z,6.20
2018-05-25T22:49:07.067Z,6.63
2018-05-25T22:51:47.036Z,6.30
2018-05-25T22:54:27.594Z,7.13
2018-05-25T22:56:55.951Z,7.07
2018-05-25T22:59:24.321Z,7.13
2018-05-25T23:01:52.662Z,6.87
2018-05-25T23:04:21.103Z,7.13
2018-05-25T23:06:49.631Z,7.70
2018-05-25T23:09:18.012Z,6.77
2018-05-25T23:11:46.357Z,7.20
2018-05-25T23:14:14.746Z,8.40
2018-05-25T23:16:43.155Z,8.33
2018-05-25T23:19:11.543Z,7.83
2018-05-25T23:21:39.887Z,8.07
2018-05-25T23:24:08.210Z,7.97
2018-05-25T23:26:36.628Z,7.43
2018-05-25T23:29:05.015Z,7.93
2018-05-25T23:31:33.412Z,6.97
2018-05-25T23:34:01.865Z,7.23
2018-05-25T23:36:30.190Z,8.60
2018-05-25T23:38:59.388Z,7.17
2018-05-25T23:41:28.583Z,8.60
2018-05-25T23:43:56.976Z,7.70
2018-05-25T23:46:25.291Z,7.53
2018-05-25T23:48:53.624Z,8.20
2018-05-25T23:51:21.959Z,8.27
2018-05-25T23:53:50.298Z,7.20
2018-05-25T23:56:18.657Z,8.23
2018-05-25T23:58:47.041Z,8.80
